Time;durP1;ratioP1;P1;durP2;ratioP2;P2;SDS_P1;SDS_P2;PMS_P1;PMS_P2;Temp;Humidity;BMP_temperature;BMP_pressure;BME280_temperature;BME280_humidity;BME280_pressure;Samples;Min_cycle;Max_cycle;Signal;HPM_P1;HPM_P2
2022/07/06 00:01:34;;;;;;;0.50;0.10;;;21.20;53.20;;;;;;5115804;27;20439;-75
2022/07/06 00:04:01;;;;;;;1.40;0.10;;;21.20;53.20;;;;;;5115922;27;20031;-75
2022/07/06 00:06:30;;;;;;;1.50;0.10;;;21.20;53.20;;;;;;5133857;27;20114;-75
2022/07/06 00:08:56;;;;;;;1.20;0.17;;;21.20;53.30;;;;;;5115522;27;20046;-75
2022/07/06 00:11:22;;;;;;;0.82;0.10;;;21.20;53.20;;;;;;5115578;27;20027;-75
2022/07/06 00:13:47;;;;;;;0.73;0.10;;;21.20;53.30;;;;;;5115190;27;20051;-75
2022/07/06 00:16:13;;;;;;;1.15;0.20;;;21.20;53.40;;;;;;5115268;27;20043;-75
2022/07/06 00:18:39;;;;;;;0.45;0.10;;;21.10;53.30;;;;;;5133738;27;20115;-75
2022/07/06 00:21:04;;;;;;;0.52;0.10;;;21.10;53.30;;;;;;5115137;27;20039;-75
2022/07/06 00:23:36;;;;;;;2.38;0.20;;;21.10;53.40;;;;;;5115393;27;20041;-74
2022/07/06 00:26:02;;;;;;;0.68;0.20;;;21.10;53.40;;;;;;5115322;27;20035;-73
2022/07/06 00:28:28;;;;;;;0.55;0.10;;;21.20;53.40;;;;;;5115891;27;20072;-76
2022/07/06 00:30:54;;;;;;;0.63;0.20;;;21.10;53.40;;;;;;5133845;27;20110;-75
2022/07/06 00:33:20;;;;;;;1.05;0.10;;;21.10;53.50;;;;;;5133565;27;20432;-74
2022/07/06 00:35:46;;;;;;;0.70;0.10;;;21.10;53.50;;;;;;5115012;27;20038;-74
2022/07/06 00:38:12;;;;;;;2.10;0.10;;;21.10;53.50;;;;;;5115170;27;20035;-75
2022/07/06 00:40:37;;;;;;;0.22;0.10;;;21.10;53.50;;;;;;5133399;27;20543;-75
2022/07/06 00:43:03;;;;;;;0.75;0.08;;;21.10;53.50;;;;;;5115101;27;20563;-75
2022/07/06 00:45:29;;;;;;;0.80;0.10;;;21.10;53.60;;;;;;5095107;28;20039;-73
2022/07/06 00:47:54;;;;;;;0.77;0.30;;;21.10;54.40;;;;;;5094380;28;20036;-75
2022/07/06 00:50:21;;;;;;;2.72;0.20;;;21.10;53.60;;;;;;5094389;28;20118;-75
2022/07/06 00:52:50;;;;;;;1.67;0.10;;;21.10;53.60;;;;;;5112487;28;20040;-75
2022/07/06 00:55:18;;;;;;;0.70;0.10;;;21.10;53.60;;;;;;5094576;28;20088;-75
2022/07/06 00:57:44;;;;;;;0.93;0.10;;;21.10;53.60;;;;;;5094404;28;20087;-74
2022/07/06 01:00:12;;;;;;;0.50;0.10;;;21.10;53.60;;;;;;5094128;28;20046;-75
2022/07/06 01:02:38;;;;;;;0.88;0.10;;;21.00;53.60;;;;;;5094461;28;20118;-76
2022/07/06 01:05:05;;;;;;;0.45;0.10;;;21.10;53.70;;;;;;5094165;28;20193;-75
2022/07/06 01:07:31;;;;;;;1.38;0.10;;;21.00;53.60;;;;;;5094193;28;20043;-75
2022/07/06 01:09:57;;;;;;;1.30;0.10;;;21.00;53.60;;;;;;5094168;28;20050;-75
2022/07/06 01:12:23;;;;;;;0.93;0.20;;;21.00;53.60;;;;;;5112072;28;20097;-73
2022/07/06 01:14:50;;;;;;;0.90;0.20;;;21.10;53.70;;;;;;5093977;28;20122;-75
2022/07/06 01:17:17;;;;;;;1.45;0.10;;;21.00;53.70;;;;;;5094273;28;20035;-75
2022/07/06 01:19:43;;;;;;;1.98;0.10;;;21.00;53.60;;;;;;5094218;28;20066;-75
2022/07/06 01:22:10;;;;;;;0.40;0.10;;;21.00;53.70;;;;;;5094085;28;20056;-75
2022/07/06 01:24:36;;;;;;;0.50;0.10;;;21.00;53.70;;;;;;5112294;28;20440;-75
2022/07/06 01:27:04;;;;;;;0.60;0.10;;;21.00;53.70;;;;;;5093982;28;20552;-75
2022/07/06 01:29:31;;;;;;;0.90;0.10;;;21.00;53.70;;;;;;5094071;28;20043;-75
2022/07/06 01:31:57;;;;;;;0.30;0.10;;;21.00;53.70;;;;;;5094009;28;20071;-75
2022/07/06 01:34:22;;;;;;;0.80;0.13;;;21.00;53.80;;;;;;5076937;28;20078;-74
2022/07/06 01:36:48;;;;;;;0.45;0.10;;;21.00;53.80;;;;;;5094205;28;20032;-70
2022/07/06 01:39:14;;;;;;;0.17;0.10;;;21.00;53.80;;;;;;5093796;28;20032;-75
2022/07/06 01:41:40;;;;;;;1.27;0.10;;;21.00;53.80;;;;;;5093852;28;20051;-75
2022/07/06 01:44:05;;;;;;;1.35;0.15;;;21.00;53.80;;;;;;5120140;28;20035;-75
2022/07/06 01:46:31;;;;;;;0.88;0.10;;;21.00;53.90;;;;;;5114467;28;20073;-75
2022/07/06 01:48:58;;;;;;;0.85;0.10;;;21.00;53.80;;;;;;5114123;28;20118;-75
2022/07/06 01:51:24;;;;;;;0.65;0.10;;;21.00;53.80;;;;;;5114242;28;20104;-73
2022/07/06 01:53:51;;;;;;;0.90;0.15;;;21.00;53.80;;;;;;5114376;28;20039;-74
2022/07/06 01:56:19;;;;;;;0.60;0.10;;;21.00;53.90;;;;;;5113996;28;20047;-75
2022/07/06 01:58:45;;;;;;;0.70;0.20;;;21.00;53.80;;;;;;5114321;28;20050;-73
2022/07/06 02:01:14;;;;;;;1.70;0.25;;;21.00;53.90;;;;;;5114254;28;20075;-75
2022/07/06 02:03:39;;;;;;;0.52;0.10;;;21.00;53.80;;;;;;5114105;28;20501;-75
2022/07/06 02:06:06;;;;;;;0.35;0.10;;;21.00;53.80;;;;;;5103710;28;20054;-73
2022/07/06 02:08:33;;;;;;;1.35;0.10;;;20.90;53.80;;;;;;5092915;28;20513;-75
2022/07/06 02:10:59;;;;;;;0.77;0.10;;;21.00;53.80;;;;;;5091735;28;20108;-75
2022/07/06 02:13:25;;;;;;;1.23;0.10;;;21.00;53.80;;;;;;5111510;28;20491;-74
2022/07/06 02:15:51;;;;;;;0.38;0.10;;;20.90;53.80;;;;;;5093527;28;20047;-74
2022/07/06 02:18:16;;;;;;;0.63;0.10;;;20.90;53.80;;;;;;5093381;28;20506;-74
2022/07/06 02:20:42;;;;;;;1.23;0.10;;;21.00;53.90;;;;;;5115341;28;20031;-74
2022/07/06 02:23:08;;;;;;;0.57;0.10;;;20.90;53.90;;;;;;5115672;28;20327;-74
2022/07/06 02:25:33;;;;;;;1.23;0.10;;;20.90;53.90;;;;;;5097286;28;20050;-74
2022/07/06 02:27:59;;;;;;;0.60;0.00;;;20.90;53.90;;;;;;5097353;28;20487;-74
2022/07/06 02:30:24;;;;;;;0.82;0.10;;;20.90;53.90;;;;;;5097267;28;20387;-74
2022/07/06 02:32:53;;;;;;;0.63;0.10;;;20.90;54.00;;;;;;5096905;28;20040;-74
2022/07/06 02:35:18;;;;;;;1.10;0.17;;;20.90;54.00;;;;;;5096861;28;20498;-74
2022/07/06 02:37:44;;;;;;;0.60;0.10;;;20.90;54.00;;;;;;5096836;28;20043;-73
2022/07/06 02:40:10;;;;;;;0.70;0.10;;;20.90;54.10;;;;;;5097139;28;20032;-75
2022/07/06 02:42:36;;;;;;;0.65;0.10;;;20.90;54.00;;;;;;5096701;28;20044;-74
2022/07/06 02:45:02;;;;;;;1.25;0.10;;;20.90;54.10;;;;;;5112522;27;20130;-74
2022/07/06 02:47:31;;;;;;;0.68;0.10;;;20.90;54.10;;;;;;5117264;27;20081;-74
2022/07/06 02:49:56;;;;;;;1.23;0.10;;;20.90;54.10;;;;;;5117425;27;20138;-74
2022/07/06 02:52:22;;;;;;;0.77;0.10;;;20.90;54.20;;;;;;5135475;27;20545;-74
2022/07/06 02:54:48;;;;;;;0.28;0.10;;;20.90;54.20;;;;;;5135696;27;20045;-74
2022/07/06 02:57:15;;;;;;;0.95;0.20;;;20.90;54.20;;;;;;5116739;27;20039;-74
2022/07/06 02:59:40;;;;;;;0.73;0.10;;;20.90;54.20;;;;;;5116758;27;20039;-74
2022/07/06 03:02:06;;;;;;;0.95;0.55;;;20.90;54.20;;;;;;5117024;27;20043;-74
2022/07/06 03:04:33;;;;;;;0.22;0.10;;;20.90;54.20;;;;;;5135431;27;20039;-73
2022/07/06 03:06:58;;;;;;;1.48;0.15;;;20.90;54.20;;;;;;5116906;27;20436;-74
2022/07/06 03:09:24;;;;;;;0.60;0.10;;;20.80;54.20;;;;;;5116607;27;20031;-75
2022/07/06 03:11:50;;;;;;;0.50;0.10;;;20.90;54.30;;;;;;5134737;27;20043;-73
2022/07/06 03:14:16;;;;;;;0.40;0.10;;;20.80;54.20;;;;;;5116556;27;20122;-74
2022/07/06 03:16:44;;;;;;;1.27;0.10;;;20.80;54.20;;;;;;5116403;27;20046;-74
2022/07/06 03:19:10;;;;;;;1.05;0.20;;;20.80;54.30;;;;;;5116795;27;20046;-74
2022/07/06 03:21:39;;;;;;;1.35;0.10;;;20.80;54.30;;;;;;5116712;27;20478;-74
2022/07/06 03:24:05;;;;;;;1.05;0.10;;;20.80;54.30;;;;;;5116357;27;20043;-74
2022/07/06 03:26:30;;;;;;;1.45;0.10;;;20.80;54.30;;;;;;5116644;27;20045;-74
2022/07/06 03:28:56;;;;;;;1.13;0.15;;;20.80;54.30;;;;;;5116286;27;20039;-74
2022/07/06 03:31:21;;;;;;;0.20;0.00;;;20.80;54.40;;;;;;5116141;27;20039;-74
2022/07/06 03:33:47;;;;;;;0.20;0.10;;;20.80;54.40;;;;;;5116390;27;20047;-74
2022/07/06 03:36:13;;;;;;;1.98;0.20;;;20.80;54.40;;;;;;5116144;27;20031;-74
2022/07/06 03:38:38;;;;;;;0.40;0.10;;;20.70;54.40;;;;;;5116386;27;20031;-75
2022/07/06 03:41:04;;;;;;;0.30;0.10;;;20.80;54.40;;;;;;5116006;27;20039;-74
2022/07/06 03:43:30;;;;;;;0.65;0.10;;;20.80;54.50;;;;;;5115857;27;20031;-74
2022/07/06 03:45:56;;;;;;;0.52;0.10;;;20.80;54.50;;;;;;5116213;27;20068;-74
2022/07/06 03:48:21;;;;;;;1.33;0.10;;;20.80;54.50;;;;;;5115965;27;20588;-74
2022/07/06 03:50:50;;;;;;;1.30;0.10;;;20.80;54.50;;;;;;5115844;27;20095;-74
2022/07/06 03:53:15;;;;;;;1.08;0.10;;;20.70;54.50;;;;;;5115749;27;20043;-73
2022/07/06 03:55:41;;;;;;;1.55;0.45;;;20.70;54.50;;;;;;5116024;27;20509;-73
2022/07/06 03:58:06;;;;;;;0.75;0.10;;;20.70;54.50;;;;;;5134511;27;20031;-74
2022/07/06 04:00:34;;;;;;;0.20;0.10;;;20.70;54.60;;;;;;5115667;27;20148;-74
2022/07/06 04:03:00;;;;;;;0.85;0.10;;;20.70;54.60;;;;;;5133952;27;20035;-74
2022/07/06 04:05:26;;;;;;;0.82;0.10;;;20.70;54.60;;;;;;5115503;27;20577;-73
2022/07/06 04:07:51;;;;;;;0.28;0.10;;;20.70;54.60;;;;;;5115475;27;20122;-74
2022/07/06 04:10:17;;;;;;;0.40;0.10;;;20.70;54.60;;;;;;5133953;27;20037;-74
2022/07/06 04:12:44;;;;;;;0.70;0.10;;;20.70;54.60;;;;;;5133489;27;20499;-73
2022/07/06 04:15:11;;;;;;;0.57;0.10;;;20.70;54.60;;;;;;5115622;27;20163;-73
2022/07/06 04:17:53;;;;;;;1.55;0.10;;;20.70;54.60;;;;;;5133637;27;20043;-74
2022/07/06 04:20:19;;;;;;;0.73;0.10;;;20.70;54.70;;;;;;5115570;27;20527;-73
2022/07/06 04:22:45;;;;;;;0.73;0.10;;;20.70;54.70;;;;;;5115522;27;20055;-74
2022/07/06 04:25:11;;;;;;;0.70;0.13;;;20.70;54.70;;;;;;5115133;27;20120;-72
2022/07/06 04:27:40;;;;;;;0.22;0.10;;;20.70;54.70;;;;;;5115187;27;20035;-74
2022/07/06 04:30:07;;;;;;;1.07;0.20;;;20.70;54.70;;;;;;5115254;27;20123;-74
2022/07/06 04:32:36;;;;;;;0.40;0.10;;;20.70;54.70;;;;;;5133480;27;20046;-74
2022/07/06 04:35:03;;;;;;;0.30;0.10;;;20.70;54.70;;;;;;5114943;27;20260;-74
2022/07/06 04:37:28;;;;;;;1.27;0.10;;;20.70;54.70;;;;;;5115248;27;20041;-74
2022/07/06 04:39:57;;;;;;;0.70;0.10;;;20.70;54.70;;;;;;5115180;27;20039;-74
2022/07/06 04:42:24;;;;;;;0.57;0.10;;;20.70;54.70;;;;;;5114459;27;20521;-74
2022/07/06 04:44:51;;;;;;;0.93;0.13;;;20.70;54.70;;;;;;5100693;28;20088;-73
2022/07/06 04:47:17;;;;;;;1.25;0.10;;;20.70;54.70;;;;;;5094522;28;20131;-73
2022/07/06 04:49:43;;;;;;;0.28;0.10;;;20.70;54.80;;;;;;5112809;28;20047;-74
2022/07/06 04:52:08;;;;;;;0.70;0.10;;;20.70;54.70;;;;;;5094336;28;20061;-74
2022/07/06 04:54:34;;;;;;;0.55;0.10;;;20.70;54.70;;;;;;5112594;28;20040;-73
2022/07/06 04:57:00;;;;;;;0.93;0.10;;;20.70;54.70;;;;;;5094264;28;20071;-74
2022/07/06 04:59:25;;;;;;;0.15;0.10;;;20.70;54.60;;;;;;5094214;28;20084;-73
2022/07/06 05:01:51;;;;;;;0.77;0.10;;;20.70;54.70;;;;;;5094180;28;20090;-74
2022/07/06 05:04:19;;;;;;;1.25;0.10;;;20.70;54.60;;;;;;5094134;28;20040;-74
2022/07/06 05:06:45;;;;;;;0.52;0.10;;;20.80;54.60;;;;;;5094258;28;20035;-74
2022/07/06 05:09:12;;;;;;;0.85;0.10;;;20.70;54.50;;;;;;5112358;28;20055;-74
2022/07/06 05:11:38;;;;;;;1.67;0.10;;;20.70;54.50;;;;;;5112265;28;20080;-74
2022/07/06 05:14:04;;;;;;;0.65;0.08;;;20.80;54.50;;;;;;5094228;28;20256;-74
2022/07/06 05:16:30;;;;;;;1.10;0.10;;;20.80;54.50;;;;;;5094195;28;20491;-73
2022/07/06 05:18:59;;;;;;;0.75;0.10;;;20.80;54.50;;;;;;5094408;28;20050;-74
2022/07/06 05:21:24;;;;;;;0.40;0.00;;;20.80;54.40;;;;;;5112372;28;20028;-73
2022/07/06 05:23:50;;;;;;;0.82;0.10;;;20.80;54.40;;;;;;5093980;28;20038;-76
2022/07/06 05:26:16;;;;;;;0.88;0.10;;;20.80;54.40;;;;;;5112262;28;20032;-73
2022/07/06 05:28:42;;;;;;;0.68;0.17;;;20.80;54.40;;;;;;5094197;28;20047;-73
2022/07/06 05:31:11;;;;;;;0.40;0.10;;;20.80;54.30;;;;;;5094000;28;20043;-74
2022/07/06 05:33:36;;;;;;;0.80;0.10;;;20.80;54.30;;;;;;5094133;28;20039;-75
2022/07/06 05:36:02;;;;;;;0.63;0.10;;;20.70;54.20;;;;;;5093926;28;20518;-73
2022/07/06 05:38:28;;;;;;;0.47;0.00;;;20.80;54.20;;;;;;5092713;28;20102;-75
2022/07/06 05:40:54;;;;;;;0.68;0.10;;;20.80;54.30;;;;;;5094628;28;20057;-71
2022/07/06 05:43:19;;;;;;;3.45;0.10;;;20.80;54.20;;;;;;5100453;28;20391;-72
2022/07/06 05:45:45;;;;;;;1.65;0.10;;;20.80;54.20;;;;;;5121678;28;20066;-72
2022/07/06 05:50:56;;;;;;;0.68;0.10;;;20.80;54.20;;;;;;5104357;28;20039;-68
2022/07/06 05:53:22;;;;;;;5.13;0.20;;;20.80;54.20;;;;;;5083406;28;20487;-69
2022/07/06 05:55:48;;;;;;;1.33;0.10;;;20.80;54.20;;;;;;5128195;27;20027;-68
2022/07/06 05:58:14;;;;;;;2.30;0.20;;;20.80;54.10;;;;;;5106139;27;20121;-68
2022/07/06 06:00:40;;;;;;;1.63;0.10;;;20.80;54.10;;;;;;5126965;27;20444;-66
2022/07/06 06:03:06;;;;;;;1.15;0.10;;;20.80;54.00;;;;;;5126576;27;20474;-68
2022/07/06 06:05:32;;;;;;;2.50;0.15;;;20.80;53.80;;;;;;5105319;27;20362;-68
2022/07/06 06:07:57;;;;;;;0.45;0.00;;;20.80;53.70;;;;;;5122605;27;20118;-68
2022/07/06 06:10:24;;;;;;;1.70;0.10;;;20.80;53.50;;;;;;5105460;27;20035;-67
2022/07/06 06:12:50;;;;;;;0.52;0.05;;;20.80;53.40;;;;;;5100874;27;20039;-66
2022/07/06 06:15:17;;;;;;;1.77;0.10;;;20.80;53.40;;;;;;5071368;27;20042;-66
2022/07/06 06:17:43;;;;;;;1.02;0.50;;;20.80;53.30;;;;;;5098714;27;20074;-66
2022/07/06 06:20:13;;;;;;;2.13;0.30;;;20.90;53.30;;;;;;5095485;27;20126;-71
2022/07/06 06:22:56;;;;;;;0.60;0.10;;;20.90;53.20;;;;;;5093175;27;20042;-71
2022/07/06 06:25:35;;;;;;;3.17;0.20;;;21.00;53.10;;;;;;5098314;27;20089;-72
2022/07/06 06:28:02;;;;;;;3.40;0.40;;;21.00;53.00;;;;;;5098048;27;20040;-70
2022/07/06 06:30:28;;;;;;;2.33;0.10;;;21.00;53.10;;;;;;5098096;27;20127;-70
2022/07/06 06:33:12;;;;;;;1.35;0.10;;;21.00;53.00;;;;;;5101947;27;20650;-69
2022/07/06 06:35:47;;;;;;;1.38;0.10;;;21.00;52.90;;;;;;5098501;27;20153;-71
2022/07/06 06:38:14;;;;;;;2.95;0.20;;;21.00;52.90;;;;;;5110102;27;20036;-73
2022/07/06 06:40:40;;;;;;;1.88;0.10;;;21.00;53.00;;;;;;5119097;27;20489;-70
2022/07/06 06:43:05;;;;;;;3.10;0.20;;;21.00;53.20;;;;;;5119794;27;20063;-70
2022/07/06 06:45:31;;;;;;;2.40;0.10;;;21.10;53.80;;;;;;5108086;27;20642;-71
2022/07/06 06:47:57;;;;;;;2.78;0.20;;;21.10;53.10;;;;;;5106360;27;20087;-72
2022/07/06 06:50:23;;;;;;;2.70;0.00;;;21.10;53.30;;;;;;5105602;27;20058;-70
2022/07/06 06:52:50;;;;;;;0.93;0.25;;;21.20;53.50;;;;;;5107170;27;20047;-72
2022/07/06 06:55:16;;;;;;;4.75;0.30;;;21.20;53.70;;;;;;5115679;27;20031;-72
2022/07/06 06:57:42;;;;;;;4.45;0.20;;;21.30;53.80;;;;;;5119191;27;20089;-71
2022/07/06 07:00:08;;;;;;;1.17;0.10;;;21.30;53.80;;;;;;5107470;27;20497;-71
2022/07/06 07:02:34;;;;;;;5.45;0.13;;;21.30;53.80;;;;;;5105199;27;20067;-71
2022/07/06 07:05:00;;;;;;;1.42;0.40;;;21.40;54.00;;;;;;5101680;27;20085;-74
2022/07/06 07:07:26;;;;;;;1.67;0.10;;;21.40;54.00;;;;;;5095876;27;20035;-69
2022/07/06 07:09:52;;;;;;;3.00;0.10;;;21.40;53.60;;;;;;5108295;27;20639;-70
2022/07/06 07:12:17;;;;;;;1.60;0.10;;;21.50;53.30;;;;;;5112047;27;20035;-68
2022/07/06 07:14:44;;;;;;;1.33;0.17;;;21.50;53.30;;;;;;5112650;27;20040;-71
2022/07/06 07:17:11;;;;;;;4.53;0.20;;;21.50;53.10;;;;;;5109900;27;20027;-71
2022/07/06 07:19:37;;;;;;;4.95;0.10;;;21.50;53.30;;;;;;5100620;27;20071;-69
2022/07/06 07:22:03;;;;;;;4.18;0.20;;;21.50;53.50;;;;;;5112436;27;20047;-76
2022/07/06 07:24:29;;;;;;;2.15;0.10;;;21.60;53.60;;;;;;5112443;27;20472;-72
2022/07/06 07:26:54;;;;;;;1.75;0.10;;;21.60;53.80;;;;;;5096796;27;20639;-70
2022/07/06 07:29:20;;;;;;;4.18;0.40;;;21.60;53.90;;;;;;5109735;27;20035;-73
2022/07/06 07:31:46;;;;;;;2.42;0.10;;;21.60;54.10;;;;;;5101463;27;20425;-70
2022/07/06 07:34:12;;;;;;;2.63;0.25;;;21.70;54.20;;;;;;5113208;27;20124;-69
2022/07/06 07:36:37;;;;;;;7.38;0.20;;;21.70;55.00;;;;;;5097635;27;20522;-70
2022/07/06 07:39:04;;;;;;;0.60;0.13;;;21.70;54.30;;;;;;5104133;27;20050;-69
2022/07/06 07:41:32;;;;;;;0.80;0.15;;;21.70;54.20;;;;;;5108498;27;20179;-69
2022/07/06 07:43:58;;;;;;;3.42;0.28;;;21.80;54.00;;;;;;5093582;27;20039;-70
2022/07/06 07:46:23;;;;;;;2.92;0.10;;;21.80;53.90;;;;;;5110284;27;20506;-69
2022/07/06 07:48:49;;;;;;;0.95;0.10;;;21.80;54.10;;;;;;5102014;27;20140;-69
2022/07/06 07:51:15;;;;;;;2.50;0.20;;;21.80;54.30;;;;;;5109415;27;20039;-73
2022/07/06 07:53:40;;;;;;;1.33;0.08;;;21.90;54.40;;;;;;5109527;27;20035;-71
2022/07/06 07:56:06;;;;;;;3.55;0.20;;;21.90;54.50;;;;;;5095074;27;20041;-70
2022/07/06 07:58:32;;;;;;;3.38;0.50;;;21.90;54.50;;;;;;5113149;27;20042;-71
2022/07/06 08:00:57;;;;;;;2.35;0.20;;;21.90;54.60;;;;;;5097083;27;20032;-72
2022/07/06 08:03:23;;;;;;;11.07;0.10;;;21.90;54.40;;;;;;5112395;27;20050;-67
2022/07/06 08:05:50;;;;;;;2.78;0.10;;;21.90;54.70;;;;;;5113573;27;20049;-71
2022/07/06 08:08:16;;;;;;;4.10;0.10;;;21.90;54.70;;;;;;5111764;27;20035;-79
2022/07/06 08:10:42;;;;;;;7.22;0.28;;;22.00;54.90;;;;;;5095449;28;20083;-76
2022/07/06 08:13:07;;;;;;;5.57;0.20;;;22.00;54.90;;;;;;5113146;27;20054;-75
2022/07/06 08:15:35;;;;;;;2.33;0.57;;;22.10;54.90;;;;;;5106126;27;20046;-74
2022/07/06 08:18:03;;;;;;;2.72;0.50;;;22.10;54.90;;;;;;5110048;27;20044;-72
2022/07/06 08:20:29;;;;;;;3.40;0.20;;;22.10;54.80;;;;;;5113533;27;20050;-70
2022/07/06 08:22:55;;;;;;;9.20;0.20;;;22.10;54.40;;;;;;5093199;27;20032;-72
2022/07/06 08:25:23;;;;;;;0.63;0.10;;;22.10;54.10;;;;;;5108958;27;20039;-67
2022/07/06 08:27:49;;;;;;;1.30;0.10;;;22.20;54.10;;;;;;5105413;28;20047;-68
2022/07/06 08:30:18;;;;;;;3.13;0.50;;;22.20;53.80;;;;;;5116570;27;20107;-68
2022/07/06 08:32:44;;;;;;;1.52;0.20;;;22.20;53.00;;;;;;5106705;27;20043;-71
2022/07/06 08:35:10;;;;;;;3.53;0.10;;;22.20;52.90;;;;;;5108232;27;20071;-78
2022/07/06 08:37:36;;;;;;;2.85;0.20;;;22.20;52.90;;;;;;5104480;27;20069;-76
2022/07/06 08:40:02;;;;;;;6.00;0.15;;;22.20;53.00;;;;;;5082441;27;20035;-72
2022/07/06 08:42:31;;;;;;;5.18;0.10;;;22.20;53.90;;;;;;5100157;27;20084;-73
2022/07/06 08:45:02;;;;;;;0.68;0.10;;;22.30;53.20;;;;;;5097035;28;20047;-73
2022/07/06 08:47:29;;;;;;;1.98;0.10;;;22.30;53.20;;;;;;5110857;27;20043;-73
2022/07/06 08:49:56;;;;;;;2.00;0.30;;;22.30;53.20;;;;;;5097438;27;20055;-70
2022/07/06 08:52:23;;;;;;;6.13;0.10;;;22.40;53.30;;;;;;5100279;27;20051;-74
2022/07/06 08:54:49;;;;;;;5.53;0.13;;;22.40;53.80;;;;;;5113532;27;20039;-73
2022/07/06 08:57:15;;;;;;;5.13;0.13;;;22.40;54.20;;;;;;5097432;27;20039;-72
2022/07/06 08:59:41;;;;;;;1.58;0.10;;;22.50;54.30;;;;;;5111783;27;20043;-74
2022/07/06 09:02:09;;;;;;;9.07;0.10;;;22.50;53.90;;;;;;5105403;27;20063;-70
2022/07/06 09:04:35;;;;;;;3.78;0.20;;;22.60;53.50;;;;;;5089787;27;20070;-74
2022/07/06 09:07:01;;;;;;;11.77;0.65;;;22.60;53.30;;;;;;5106258;28;20096;-71
2022/07/06 09:09:30;;;;;;;2.47;0.10;;;22.80;53.00;;;;;;5090939;28;20494;-71
2022/07/06 09:11:57;;;;;;;7.25;0.20;;;22.80;52.90;;;;;;5094688;28;22275;-73
2022/07/06 09:14:23;;;;;;;2.20;0.10;;;22.90;53.50;;;;;;5110719;27;20040;-72
2022/07/06 09:16:52;;;;;;;4.13;0.25;;;22.90;52.80;;;;;;5090118;28;20043;-71
2022/07/06 09:19:18;;;;;;;2.72;0.10;;;22.80;52.80;;;;;;5088629;28;20043;-71
2022/07/06 09:21:44;;;;;;;7.10;0.10;;;22.80;52.80;;;;;;5109396;28;20092;-69
2022/07/06 09:24:11;;;;;;;5.25;0.30;;;22.80;53.00;;;;;;5104561;28;20071;-73
2022/07/06 09:26:41;;;;;;;1.70;0.10;;;22.80;52.90;;;;;;5088795;28;20637;-72
2022/07/06 09:29:07;;;;;;;3.58;0.20;;;22.80;52.80;;;;;;5099794;27;20043;-70
2022/07/06 09:31:33;;;;;;;5.18;0.20;;;23.00;52.60;;;;;;5109315;27;20712;-72
2022/07/06 09:42:03;;;;;;;3.33;0.10;;;23.20;52.00;;;;;;5064785;27;20504;-73
2022/07/06 09:47:11;;;;;;;1.98;0.35;;;23.40;51.60;;;;;;5110502;27;1167146;-70
2022/07/06 09:49:40;;;;;;;3.25;0.10;;;23.50;51.60;;;;;;5121440;27;20386;-70
2022/07/06 09:52:09;;;;;;;4.18;0.20;;;23.50;51.30;;;;;;5119923;27;20133;-70
2022/07/06 09:54:38;;;;;;;1.75;0.00;;;23.60;51.20;;;;;;5122420;27;20113;-71
2022/07/06 09:57:05;;;;;;;2.60;1.00;;;23.60;51.10;;;;;;5123488;27;20067;-69
2022/07/06 09:59:35;;;;;;;2.25;0.10;;;23.60;51.00;;;;;;5115449;27;20437;-68
2022/07/06 10:02:05;;;;;;;2.88;0.30;;;23.50;50.40;;;;;;5117420;27;20111;-73
2022/07/06 10:04:31;;;;;;;4.53;0.10;;;23.60;50.20;;;;;;5114026;27;20030;-69
2022/07/06 10:07:00;;;;;;;6.78;0.20;;;23.70;49.90;;;;;;5115299;27;20706;-71
2022/07/06 10:09:28;;;;;;;6.65;0.17;;;23.60;50.00;;;;;;5130732;27;20672;-74
2022/07/06 10:11:56;;;;;;;6.10;0.10;;;23.60;49.80;;;;;;5115172;27;20059;-70
2022/07/06 10:14:24;;;;;;;2.95;0.17;;;23.60;49.80;;;;;;5111719;27;20049;-73
2022/07/06 10:16:50;;;;;;;1.98;0.15;;;23.60;49.90;;;;;;5118336;27;20054;-74
2022/07/06 10:19:19;;;;;;;10.95;0.10;;;23.70;50.00;;;;;;5132238;27;20035;-73
2022/07/06 10:21:45;;;;;;;3.92;0.20;;;23.60;49.90;;;;;;5120031;27;20046;-75
2022/07/06 10:24:13;;;;;;;5.95;0.10;;;23.60;49.90;;;;;;5109694;27;20139;-68
2022/07/06 10:26:40;;;;;;;8.00;0.20;;;23.70;49.90;;;;;;5126959;27;20043;-73
2022/07/06 10:29:06;;;;;;;5.68;0.20;;;23.60;49.70;;;;;;5125432;27;20508;-74
2022/07/06 10:31:35;;;;;;;5.13;0.30;;;23.70;49.60;;;;;;5135565;27;21457;-75
2022/07/06 10:34:05;;;;;;;4.55;0.10;;;23.70;49.40;;;;;;5112706;27;20112;-71
2022/07/06 10:36:31;;;;;;;2.40;0.13;;;23.70;49.30;;;;;;5123496;27;20446;-70
2022/07/06 10:38:57;;;;;;;3.47;0.15;;;23.80;49.30;;;;;;5124396;27;20284;-71
2022/07/06 10:41:31;;;;;;;5.45;0.20;;;23.80;49.00;;;;;;5104710;27;20046;-71
2022/07/06 10:43:58;;;;;;;4.88;0.25;;;23.70;48.80;;;;;;5120502;27;20047;-70
2022/07/06 10:46:28;;;;;;;6.40;0.40;;;23.70;48.70;;;;;;5101732;28;20117;-70
2022/07/06 10:48:54;;;;;;;5.35;1.17;;;23.70;48.40;;;;;;5098855;28;20687;-69
2022/07/06 10:51:31;;;;;;;2.85;0.10;;;23.70;48.30;;;;;;5097236;28;20122;-70
2022/07/06 10:53:58;;;;;;;3.35;0.35;;;23.60;48.20;;;;;;5094434;28;20036;-70
2022/07/06 10:56:35;;;;;;;4.60;0.20;;;23.70;48.20;;;;;;5097407;28;20724;-70
2022/07/06 10:59:11;;;;;;;6.50;0.20;;;23.60;48.00;;;;;;5085126;28;20712;-71
2022/07/06 11:01:37;;;;;;;2.67;0.10;;;23.60;48.00;;;;;;5083897;28;20396;-68
2022/07/06 11:06:40;;;;;;;3.25;0.30;;;23.60;48.10;;;;;;5137453;27;1180416;-69
2022/07/06 11:09:10;;;;;;;5.00;0.30;;;23.50;48.10;;;;;;5146583;27;20051;-67
2022/07/06 11:14:17;;;;;;;1.80;0.10;;;23.60;48.10;;;;;;5082550;27;20360;-70
2022/07/06 11:19:27;;;;;;;6.22;0.47;;;23.60;48.10;;;;;;5083783;28;20424;-69
2022/07/06 11:21:57;;;;;;;6.47;0.30;;;23.50;48.00;;;;;;5080855;28;20040;-70
2022/07/06 11:24:32;;;;;;;4.65;0.40;;;23.50;48.00;;;;;;5083551;28;20648;-69
2022/07/06 11:26:59;;;;;;;5.20;0.25;;;23.50;48.10;;;;;;5079543;28;20526;-69
2022/07/06 11:29:26;;;;;;;5.38;0.13;;;23.50;48.10;;;;;;5081866;28;20036;-69
2022/07/06 11:31:55;;;;;;;2.30;0.10;;;23.50;48.20;;;;;;5081163;28;20045;-69
2022/07/06 11:34:25;;;;;;;1.67;0.10;;;23.40;48.20;;;;;;5083872;28;20032;-69
2022/07/06 11:36:57;;;;;;;4.13;0.35;;;23.40;48.20;;;;;;5083451;28;20037;-69
2022/07/06 11:39:26;;;;;;;1.98;0.10;;;23.30;48.20;;;;;;5083180;28;20131;-69
2022/07/06 11:41:51;;;;;;;4.00;0.45;;;23.30;48.20;;;;;;5082114;28;20040;-69
2022/07/06 11:44:17;;;;;;;2.10;0.10;;;23.20;48.30;;;;;;5082781;28;20048;-69
2022/07/06 11:46:43;;;;;;;2.15;0.15;;;23.20;48.40;;;;;;5083754;28;20040;-69
2022/07/06 11:49:09;;;;;;;2.55;0.10;;;23.10;48.40;;;;;;5081625;28;20044;-69
2022/07/06 11:51:37;;;;;;;2.58;0.10;;;23.10;48.50;;;;;;5082660;28;20392;-69
2022/07/06 11:54:13;;;;;;;2.25;0.10;;;23.10;48.60;;;;;;5082505;28;20040;-69
2022/07/06 11:57:00;;;;;;;2.15;0.15;;;23.10;48.60;;;;;;5082409;28;20040;-69
2022/07/06 11:59:29;;;;;;;1.05;0.10;;;23.10;48.70;;;;;;5082913;28;20132;-69
2022/07/06 12:02:00;;;;;;;0.50;0.10;;;23.00;48.70;;;;;;5084177;28;20033;-69
2022/07/06 12:04:29;;;;;;;2.08;0.10;;;23.00;48.80;;;;;;5079623;28;20107;-71
2022/07/06 12:06:55;;;;;;;1.17;0.10;;;23.00;48.70;;;;;;5082598;28;20439;-69
2022/07/06 12:09:21;;;;;;;2.30;0.10;;;23.00;48.70;;;;;;5084969;28;20067;-69
2022/07/06 12:11:47;;;;;;;2.03;0.10;;;23.00;48.70;;;;;;5085272;28;20032;-69
2022/07/06 12:14:19;;;;;;;1.13;0.10;;;23.00;48.70;;;;;;5066901;28;20480;-69
2022/07/06 12:16:47;;;;;;;0.82;0.00;;;23.00;48.70;;;;;;5083472;28;20040;-69
2022/07/06 12:19:13;;;;;;;0.13;0.00;;;23.00;48.80;;;;;;5071046;28;20106;-70
2022/07/06 12:24:27;;;;;;;1.13;0.00;;;23.00;48.70;;;;;;5125489;27;20400;-70
2022/07/06 12:26:54;;;;;;;2.10;0.10;;;22.90;48.60;;;;;;5106402;28;20067;-70
2022/07/06 12:29:21;;;;;;;1.67;0.10;;;22.90;48.80;;;;;;5106938;28;20035;-69
2022/07/06 12:31:56;;;;;;;1.48;0.10;;;22.90;48.70;;;;;;5106030;28;20119;-71
2022/07/06 12:34:25;;;;;;;2.80;0.10;;;22.90;48.70;;;;;;5107375;28;20115;-71
2022/07/06 12:36:54;;;;;;;1.08;0.10;;;22.90;48.80;;;;;;5105316;28;20531;-70
2022/07/06 12:39:22;;;;;;;2.15;0.00;;;22.90;48.70;;;;;;5105883;28;20081;-71
2022/07/06 12:41:50;;;;;;;1.65;0.10;;;22.80;48.70;;;;;;5093612;28;20484;-69
2022/07/06 12:44:19;;;;;;;2.40;0.10;;;22.90;48.90;;;;;;5119398;28;20086;-71
2022/07/06 12:46:45;;;;;;;3.63;0.10;;;22.90;48.90;;;;;;5105120;28;20043;-70
2022/07/06 12:51:57;;;;;;;0.65;0.32;;;22.80;48.80;;;;;;5127550;27;20432;-70
2022/07/06 12:54:28;;;;;;;0.80;0.10;;;22.80;48.60;;;;;;5125586;28;20092;-70
2022/07/06 12:57:25;;;;;;;1.58;0.20;;;22.80;48.60;;;;;;5125082;28;20394;-70
2022/07/06 13:02:36;;;;;;;1.52;0.57;;;22.90;48.60;;;;;;5117963;27;21118;-70
2022/07/06 13:07:46;;;;;;;0.20;0.00;;;22.80;48.70;;;;;;5128161;27;20407;-70
2022/07/06 13:10:13;;;;;;;0.50;0.00;;;22.90;48.80;;;;;;5125774;28;20040;-70
2022/07/06 13:12:40;;;;;;;6.18;0.40;;;22.80;48.80;;;;;;5125826;28;20039;-70
2022/07/06 13:15:07;;;;;;;1.73;0.17;;;22.80;48.70;;;;;;5124666;28;20038;-70
2022/07/06 13:17:34;;;;;;;1.27;0.00;;;22.80;48.60;;;;;;5125800;27;20573;-70